Time;durP1;ratioP1;P1;durP2;ratioP2;P2;SDS_P1;SDS_P2;PMS_P1;PMS_P2;Temp;Humidity;BMP_temperature;BMP_pressure;BME280_temperature;BME280_humidity;BME280_pressure;Samples;Min_cycle;Max_cycle;Signal;HPM_P1;HPM_P2
2022/08/04 00:02:26;;;;;;;9.60;5.70;;;22.70;99.90;;;;;;5106557;28;20468;-74
2022/08/04 00:05:27;;;;;;;7.60;5.03;;;22.70;99.90;;;;;;5102544;28;20538;-74
2022/08/04 00:08:26;;;;;;;6.60;5.33;;;22.70;99.90;;;;;;5103925;28;20475;-74
2022/08/04 00:11:21;;;;;;;7.53;5.67;;;22.60;99.90;;;;;;5107955;27;21123;-74
2022/08/04 00:14:13;;;;;;;7.30;6.37;;;22.60;99.90;;;;;;5100149;28;20600;-74
2022/08/04 00:17:05;;;;;;;6.70;5.20;;;22.60;99.90;;;;;;5105628;27;20448;-74
2022/08/04 00:19:58;;;;;;;6.67;5.93;;;22.50;99.90;;;;;;5110694;28;20497;-74
2022/08/04 00:22:52;;;;;;;6.97;6.27;;;22.40;99.90;;;;;;5102336;28;20460;-74
2022/08/04 00:25:40;;;;;;;7.47;6.07;;;22.40;99.90;;;;;;5101799;28;20446;-74
2022/08/04 00:28:31;;;;;;;8.53;5.83;;;22.30;99.90;;;;;;5106342;28;20526;-75
2022/08/04 00:31:19;;;;;;;6.43;5.67;;;22.30;99.90;;;;;;5096301;28;21047;-74
2022/08/04 00:34:29;;;;;;;7.30;6.10;;;22.30;99.90;;;;;;5111896;27;20444;-74
2022/08/04 00:37:20;;;;;;;8.13;6.20;;;22.30;99.90;;;;;;5105325;28;20835;-74
2022/08/04 00:40:19;;;;;;;9.97;7.07;;;22.30;99.90;;;;;;5100787;28;20496;-74
2022/08/04 00:43:14;;;;;;;7.13;6.43;;;22.20;99.90;;;;;;5112271;27;20466;-74
2022/08/04 00:46:27;;;;;;;8.67;6.37;;;22.20;99.90;;;;;;5108941;28;20848;-75
2022/08/04 00:49:31;;;;;;;7.43;5.90;;;22.20;99.90;;;;;;5101981;28;20452;-74
2022/08/04 00:52:32;;;;;;;6.87;6.27;;;22.20;99.90;;;;;;5110094;27;20651;-74
2022/08/04 00:55:49;;;;;;;7.53;6.40;;;22.10;99.90;;;;;;5097222;28;21237;-74
2022/08/04 00:58:59;;;;;;;9.07;5.67;;;22.10;99.90;;;;;;5101307;28;20505;-73
2022/08/04 01:01:59;;;;;;;9.90;6.17;;;22.00;99.90;;;;;;5108146;27;21048;-75
2022/08/04 01:04:56;;;;;;;6.90;6.20;;;22.00;99.90;;;;;;5097913;28;20459;-77
2022/08/04 01:08:11;;;;;;;7.07;6.33;;;21.90;99.90;;;;;;5102400;27;20452;-74
2022/08/04 01:11:19;;;;;;;6.77;6.07;;;21.90;99.90;;;;;;5103027;27;20475;-73
2022/08/04 01:14:26;;;;;;;7.53;5.47;;;21.90;99.90;;;;;;5102950;27;20952;-75
2022/08/04 01:17:20;;;;;;;5.80;5.20;;;21.90;99.90;;;;;;5112363;27;20487;-73
2022/08/04 01:20:11;;;;;;;8.50;5.60;;;21.90;99.90;;;;;;5102488;28;20454;-73
2022/08/04 01:23:41;;;;;;;7.80;5.50;;;21.80;99.90;;;;;;5101704;27;20473;-75
2022/08/04 01:26:52;;;;;;;6.03;5.07;;;21.80;99.90;;;;;;5108190;27;20551;-74
2022/08/04 01:29:49;;;;;;;7.60;5.63;;;21.80;99.90;;;;;;5111505;27;20658;-74
2022/08/04 01:32:52;;;;;;;6.20;5.60;;;21.80;99.90;;;;;;5105133;28;20467;-74
2022/08/04 01:35:47;;;;;;;6.23;4.90;;;21.80;99.90;;;;;;5110919;27;20530;-74
2022/08/04 01:38:40;;;;;;;5.63;5.10;;;21.70;99.90;;;;;;5100686;27;20537;-74
2022/08/04 01:41:28;;;;;;;6.93;5.30;;;21.60;99.90;;;;;;5102591;27;20440;-75
2022/08/04 01:44:21;;;;;;;8.70;5.60;;;21.60;99.90;;;;;;5109418;27;20460;-74
2022/08/04 01:47:11;;;;;;;5.10;4.70;;;21.60;99.90;;;;;;5104924;27;20518;-73
2022/08/04 01:50:06;;;;;;;5.10;4.50;;;21.60;99.90;;;;;;5098626;27;20441;-73
2022/08/04 01:52:55;;;;;;;6.10;5.43;;;21.50;99.90;;;;;;5108405;27;20488;-75
2022/08/04 01:55:43;;;;;;;5.00;4.60;;;21.50;99.90;;;;;;5103518;27;20543;-74
2022/08/04 01:58:42;;;;;;;6.57;5.10;;;21.50;99.90;;;;;;5098218;27;20444;-72
2022/08/04 02:01:36;;;;;;;5.73;5.20;;;21.40;99.90;;;;;;5109622;27;20965;-73
2022/08/04 02:04:26;;;;;;;5.90;5.00;;;21.40;99.90;;;;;;5114754;22;20698;-79
2022/08/04 02:07:26;;;;;;;5.90;5.20;;;21.40;99.90;;;;;;5100560;28;20447;-79
2022/08/04 02:10:23;;;;;;;5.07;4.67;;;21.40;99.90;;;;;;5103024;27;20526;-79
2022/08/04 02:13:23;;;;;;;5.87;5.27;;;21.30;99.90;;;;;;5090282;28;20564;-79
2022/08/04 02:16:22;;;;;;;5.73;5.20;;;21.30;99.90;;;;;;5087146;28;21158;-79
2022/08/04 02:19:23;;;;;;;5.67;5.17;;;21.20;99.90;;;;;;5082144;28;20444;-79
2022/08/04 02:22:18;;;;;;;5.90;5.27;;;21.20;99.90;;;;;;5079902;28;20977;-79
2022/08/04 02:25:08;;;;;;;6.00;5.40;;;21.20;99.90;;;;;;5080754;28;20969;-79
2022/08/04 02:28:08;;;;;;;5.60;5.10;;;21.20;99.90;;;;;;5081722;28;20872;-79
2022/08/04 02:31:08;;;;;;;5.27;4.50;;;21.20;99.90;;;;;;5079009;28;20556;-79
2022/08/04 02:34:06;;;;;;;4.93;4.53;;;21.10;99.90;;;;;;5086670;28;20476;-79
2022/08/04 02:36:55;;;;;;;6.90;4.57;;;21.10;99.90;;;;;;5079656;28;20453;-79
2022/08/04 02:39:47;;;;;;;7.00;4.70;;;21.10;99.90;;;;;;5080387;28;20634;-79
2022/08/04 02:42:38;;;;;;;5.47;4.73;;;21.00;99.90;;;;;;5091229;28;20440;-79
2022/08/04 02:45:29;;;;;;;5.47;5.07;;;20.90;99.90;;;;;;5087008;28;20518;-79
2022/08/04 02:48:20;;;;;;;6.10;5.10;;;20.90;99.90;;;;;;5081200;28;20499;-79
2022/08/04 02:51:22;;;;;;;6.90;5.30;;;20.90;99.90;;;;;;5083762;28;20563;-79
2022/08/04 02:54:11;;;;;;;5.73;5.23;;;20.90;99.90;;;;;;5080967;28;20501;-79
2022/08/04 02:57:01;;;;;;;6.70;5.20;;;20.90;99.90;;;;;;5084177;28;20835;-79
2022/08/04 03:00:07;;;;;;;5.30;4.90;;;20.80;99.90;;;;;;5089417;28;20456;-79
2022/08/04 03:03:02;;;;;;;6.00;5.47;;;20.80;99.90;;;;;;5084033;28;20523;-79
2022/08/04 03:06:25;;;;;;;8.20;5.03;;;20.80;99.90;;;;;;5084790;28;20449;-79
2022/08/04 03:09:46;;;;;;;5.33;4.80;;;20.70;99.90;;;;;;5083670;28;21021;-79
2022/08/04 03:13:27;;;;;;;5.57;4.90;;;20.70;99.90;;;;;;5074717;28;20847;-79
2022/08/04 03:16:39;;;;;;;6.03;4.70;;;20.70;99.90;;;;;;5079711;28;20485;-79
2022/08/04 03:19:58;;;;;;;5.70;5.20;;;20.60;99.90;;;;;;5077004;28;20445;-79
2022/08/04 03:23:22;;;;;;;7.80;5.20;;;20.60;99.90;;;;;;5075933;28;20601;-79
2022/08/04 03:26:48;;;;;;;7.30;5.07;;;20.60;99.90;;;;;;5079866;28;20563;-79
2022/08/04 03:30:03;;;;;;;5.13;4.63;;;20.60;99.90;;;;;;5076179;28;20445;-79
2022/08/04 03:33:24;;;;;;;5.97;5.10;;;20.60;99.90;;;;;;5089605;28;20511;-79
2022/08/04 03:36:37;;;;;;;5.10;4.60;;;20.50;99.90;;;;;;5074184;28;20468;-79
2022/08/04 03:40:04;;;;;;;5.07;4.33;;;20.40;99.90;;;;;;5073159;28;20450;-78
2022/08/04 03:43:42;;;;;;;5.87;5.47;;;20.40;99.90;;;;;;5054460;28;20485;-79
2022/08/04 03:47:41;;;;;;;5.27;4.77;;;20.40;99.90;;;;;;5076284;28;20446;-79
2022/08/04 03:53:07;;;;;;;5.03;4.50;;;20.40;99.90;;;;;;5021003;28;20535;-79
2022/08/04 03:54:49;;;;;;;5.10;4.70;;;20.40;99.90;;;;;;5082261;28;20475;-79
2022/08/04 03:57:58;;;;;;;5.03;4.63;;;20.40;99.90;;;;;;5080101;28;20445;-79
2022/08/04 04:00:57;;;;;;;5.70;5.20;;;20.30;99.90;;;;;;5084140;28;20457;-79
2022/08/04 04:04:03;;;;;;;6.83;4.57;;;20.30;99.90;;;;;;5083045;28;20479;-79
2022/08/04 04:07:33;;;;;;;4.63;4.23;;;20.30;99.90;;;;;;5082425;28;20492;-79
2022/08/04 04:10:45;;;;;;;5.97;4.60;;;20.30;99.90;;;;;;5080364;28;20460;-79
2022/08/04 04:13:53;;;;;;;5.33;4.93;;;20.20;99.90;;;;;;5075106;28;20661;-79
2022/08/04 04:16:58;;;;;;;6.00;4.50;;;20.20;99.90;;;;;;5095322;28;20473;-78
2022/08/04 04:20:00;;;;;;;6.37;4.60;;;20.20;99.90;;;;;;5081460;28;20449;-78
2022/08/04 04:23:00;;;;;;;9.97;5.53;;;20.20;99.90;;;;;;5079130;28;20466;-78
2022/08/04 04:25:59;;;;;;;4.50;4.20;;;20.20;99.90;;;;;;5076093;28;20910;-79
2022/08/04 04:29:08;;;;;;;5.50;5.00;;;20.20;99.90;;;;;;5083527;28;20536;-79
2022/08/04 04:32:19;;;;;;;4.93;4.63;;;20.20;99.90;;;;;;5083427;28;20965;-78
2022/08/04 04:35:22;;;;;;;4.77;4.37;;;20.20;99.90;;;;;;5083934;28;20487;-78
2022/08/04 04:38:29;;;;;;;7.80;4.70;;;20.20;99.90;;;;;;5075691;28;20532;-78
2022/08/04 04:41:32;;;;;;;4.90;4.37;;;20.30;99.90;;;;;;5076492;28;20448;-78
2022/08/04 04:44:51;;;;;;;6.63;4.97;;;20.30;99.90;;;;;;5088292;28;20669;-78
2022/08/04 04:47:49;;;;;;;5.90;5.30;;;20.40;99.90;;;;;;5083981;28;20480;-78
2022/08/04 04:51:10;;;;;;;5.60;5.10;;;20.40;99.90;;;;;;5084855;28;20463;-79
2022/08/04 04:54:04;;;;;;;5.83;4.27;;;20.50;99.90;;;;;;5085596;28;20505;-79
2022/08/04 04:57:03;;;;;;;5.50;5.00;;;20.50;99.90;;;;;;5085315;28;20536;-79
2022/08/04 04:59:57;;;;;;;10.07;6.20;;;20.60;99.90;;;;;;5089105;28;20581;-79
2022/08/04 05:03:20;;;;;;;7.30;4.90;;;20.60;99.90;;;;;;5084365;28;21073;-78
2022/08/04 05:06:28;;;;;;;6.70;5.50;;;20.70;99.90;;;;;;5081993;28;21062;-74
2022/08/04 05:09:27;;;;;;;6.40;5.23;;;20.70;99.90;;;;;;5086642;28;21023;-73
2022/08/04 05:13:00;;;;;;;5.90;4.90;;;20.80;99.90;;;;;;5080250;28;20496;-73
2022/08/04 05:16:14;;;;;;;6.27;4.67;;;20.80;99.90;;;;;;5035606;28;20474;-75
2022/08/04 05:19:13;;;;;;;7.57;4.17;;;20.90;99.90;;;;;;5090174;28;20489;-76
2022/08/04 05:22:08;;;;;;;6.93;5.63;;;20.90;99.90;;;;;;5075319;28;20542;-76
2022/08/04 05:25:06;;;;;;;6.00;5.03;;;21.00;99.90;;;;;;5086322;28;20829;-76
2022/08/04 05:28:02;;;;;;;6.37;5.13;;;21.10;99.90;;;;;;5068601;28;20464;-76
2022/08/04 05:30:56;;;;;;;5.10;4.60;;;21.10;99.90;;;;;;5083204;28;20453;-76
2022/08/04 05:33:49;;;;;;;5.57;5.07;;;21.20;99.90;;;;;;5083239;28;20547;-76
2022/08/04 05:36:40;;;;;;;7.20;5.03;;;21.20;99.90;;;;;;5081758;28;20445;-76
2022/08/04 05:39:35;;;;;;;7.03;4.47;;;21.30;99.90;;;;;;5075706;28;20457;-76
2022/08/04 05:42:25;;;;;;;6.93;4.90;;;21.40;99.90;;;;;;5084896;28;20453;-76
2022/08/04 05:45:13;;;;;;;5.17;4.67;;;21.40;99.90;;;;;;5087213;28;20544;-76
2022/08/04 05:48:02;;;;;;;5.97;4.13;;;21.50;99.90;;;;;;5084598;28;20515;-76
2022/08/04 05:50:51;;;;;;;4.80;4.17;;;21.50;99.90;;;;;;5089901;28;20599;-76
2022/08/04 05:53:43;;;;;;;5.33;4.37;;;21.60;99.90;;;;;;5089164;28;20483;-76
2022/08/04 05:56:34;;;;;;;5.37;4.40;;;21.70;99.90;;;;;;5079692;28;20441;-75
2022/08/04 05:59:24;;;;;;;5.37;4.97;;;21.80;99.90;;;;;;5072277;28;20509;-76
2022/08/04 06:02:15;;;;;;;6.57;4.57;;;21.80;99.90;;;;;;5081923;28;20497;-76
2022/08/04 06:05:06;;;;;;;5.43;4.37;;;21.90;99.90;;;;;;5056436;28;20479;-76
2022/08/04 06:07:54;;;;;;;4.80;4.40;;;22.00;99.90;;;;;;5077864;28;20464;-76
2022/08/04 06:11:05;;;;;;;10.97;4.90;;;22.00;99.90;;;;;;5081959;28;20457;-76
2022/08/04 06:13:58;;;;;;;7.63;4.63;;;22.10;99.90;;;;;;5072648;28;21323;-78
2022/08/04 06:16:49;;;;;;;7.17;4.53;;;22.20;99.90;;;;;;5080083;28;22532;-78
2022/08/04 06:19:41;;;;;;;8.03;4.40;;;22.30;99.90;;;;;;5075907;28;20455;-78
2022/08/04 06:22:53;;;;;;;5.70;4.50;;;22.30;99.90;;;;;;5075920;28;20467;-78
2022/08/04 06:25:45;;;;;;;6.83;4.60;;;22.40;99.90;;;;;;5084329;28;20972;-77
2022/08/04 06:28:37;;;;;;;5.80;4.30;;;22.50;99.90;;;;;;5080443;28;20540;-78
2022/08/04 06:31:45;;;;;;;8.70;3.97;;;22.50;99.90;;;;;;5088834;28;20457;-78
2022/08/04 06:34:55;;;;;;;7.37;4.17;;;22.60;99.90;;;;;;5070401;28;22809;-78
2022/08/04 06:37:45;;;;;;;7.80;4.37;;;22.60;99.90;;;;;;5075864;28;20452;-75
2022/08/04 06:40:34;;;;;;;7.03;4.60;;;22.70;99.90;;;;;;5076635;28;20449;-75
2022/08/04 06:43:23;;;;;;;5.50;4.57;;;22.80;99.90;;;;;;5077798;28;20513;-75
2022/08/04 06:46:15;;;;;;;7.50;4.60;;;22.80;99.90;;;;;;5075577;28;20461;-75
2022/08/04 06:49:05;;;;;;;8.50;4.90;;;22.90;99.90;;;;;;5079544;28;20456;-75
2022/08/04 06:51:55;;;;;;;6.37;3.93;;;23.00;99.90;;;;;;5088084;28;20456;-75
2022/08/04 06:54:44;;;;;;;5.83;4.63;;;23.10;99.90;;;;;;5084085;28;20616;-75
2022/08/04 06:57:36;;;;;;;8.23;4.33;;;23.10;99.90;;;;;;5076969;28;20464;-77
2022/08/04 07:00:26;;;;;;;4.20;3.80;;;23.20;99.90;;;;;;5078487;28;20491;-78
2022/08/04 07:03:15;;;;;;;5.10;3.90;;;23.30;99.90;;;;;;5075200;28;20585;-78
2022/08/04 07:06:06;;;;;;;9.00;4.60;;;23.30;99.90;;;;;;5078134;28;20457;-76
2022/08/04 07:09:02;;;;;;;10.90;4.40;;;23.40;99.90;;;;;;5078609;28;20445;-76
2022/08/04 07:11:58;;;;;;;6.83;4.10;;;23.50;99.90;;;;;;5080102;28;20823;-75
2022/08/04 07:14:47;;;;;;;7.70;4.40;;;23.60;99.90;;;;;;5073701;28;20580;-75
2022/08/04 07:17:37;;;;;;;6.00;4.07;;;23.60;99.90;;;;;;5077746;28;20449;-75
2022/08/04 07:20:30;;;;;;;10.33;4.57;;;23.70;99.90;;;;;;5082308;28;20467;-75
2022/08/04 07:23:29;;;;;;;4.53;4.00;;;23.80;99.90;;;;;;5080415;28;20467;-75
2022/08/04 07:26:19;;;;;;;7.90;4.47;;;24.00;99.90;;;;;;5072218;28;20444;-75
2022/08/04 07:29:11;;;;;;;6.33;3.90;;;24.00;99.90;;;;;;5074823;28;20544;-75
2022/08/04 07:32:00;;;;;;;5.30;3.90;;;24.10;99.90;;;;;;5084913;28;20566;-76
2022/08/04 07:34:49;;;;;;;6.10;3.80;;;24.20;99.90;;;;;;5071358;28;20477;-76
2022/08/04 07:37:39;;;;;;;6.50;4.23;;;24.30;99.90;;;;;;5068790;28;20452;-78
2022/08/04 07:40:29;;;;;;;6.43;3.23;;;24.40;99.90;;;;;;5071398;28;20495;-78
2022/08/04 07:43:17;;;;;;;6.00;3.80;;;24.40;99.90;;;;;;5070171;28;20468;-78
2022/08/04 07:46:06;;;;;;;5.77;3.53;;;24.50;99.90;;;;;;5069828;28;20467;-78
2022/08/04 07:48:54;;;;;;;4.27;3.40;;;24.70;99.90;;;;;;5069170;28;20449;-78
2022/08/04 07:51:43;;;;;;;6.23;3.60;;;24.80;99.90;;;;;;5070863;28;20472;-76
2022/08/04 07:54:32;;;;;;;4.40;3.37;;;24.90;99.90;;;;;;5071074;28;20999;-75
2022/08/04 07:57:22;;;;;;;4.87;3.90;;;24.90;99.90;;;;;;5070515;28;20582;-76
2022/08/04 08:00:30;;;;;;;3.97;3.50;;;25.00;99.90;;;;;;5070011;28;20452;-76
2022/08/04 08:03:20;;;;;;;5.57;3.70;;;25.20;99.90;;;;;;5092670;22;21797;-73
2022/08/04 08:06:09;;;;;;;4.83;3.60;;;25.30;99.90;;;;;;5110950;27;20470;-74
2022/08/04 08:09:20;;;;;;;6.00;4.40;;;25.40;99.90;;;;;;5112210;28;20447;-74
2022/08/04 08:12:10;;;;;;;6.47;3.40;;;25.50;99.90;;;;;;5106866;27;20535;-75
2022/08/04 08:15:20;;;;;;;6.80;3.87;;;25.60;99.90;;;;;;5088633;28;20557;-75
2022/08/04 08:18:09;;;;;;;5.30;4.10;;;25.70;99.90;;;;;;5097218;28;20480;-74
2022/08/04 08:20:58;;;;;;;6.80;3.67;;;25.80;99.90;;;;;;5091166;28;21383;-74
2022/08/04 08:23:46;;;;;;;4.70;3.20;;;25.80;99.90;;;;;;5099587;27;20459;-74
2022/08/04 08:26:35;;;;;;;5.53;3.17;;;25.90;99.90;;;;;;5097506;28;20440;-73
2022/08/04 08:29:24;;;;;;;6.03;3.30;;;26.10;99.90;;;;;;5101752;28;20493;-74
2022/08/04 08:32:14;;;;;;;5.20;3.40;;;26.20;99.90;;;;;;5102725;27;20463;-74
2022/08/04 08:35:06;;;;;;;6.93;3.60;;;26.30;99.90;;;;;;5097692;28;20621;-74
2022/08/04 08:38:02;;;;;;;6.00;3.53;;;26.50;99.90;;;;;;5106481;28;20816;-73
2022/08/04 08:40:56;;;;;;;5.87;3.43;;;26.60;99.90;;;;;;5102086;27;20460;-73
2022/08/04 08:44:01;;;;;;;6.13;4.10;;;26.80;99.90;;;;;;5103897;28;20471;-73
2022/08/04 08:47:06;;;;;;;7.60;3.63;;;26.90;99.90;;;;;;5098061;28;20447;-73
2022/08/04 08:50:32;;;;;;;4.90;3.43;;;27.00;99.90;;;;;;5097638;27;20556;-73
2022/08/04 08:53:38;;;;;;;4.37;3.37;;;27.10;99.90;;;;;;5073931;28;20599;-72
2022/08/04 08:56:39;;;;;;;7.47;3.27;;;27.20;99.90;;;;;;5098253;27;20498;-73
2022/08/04 08:59:49;;;;;;;3.50;2.77;;;27.20;99.90;;;;;;5098333;27;20537;-69
2022/08/04 09:03:17;;;;;;;5.23;3.40;;;27.30;99.90;;;;;;5104342;28;20967;-71
2022/08/04 09:06:27;;;;;;;5.70;3.10;;;27.40;99.90;;;;;;5097220;28;20445;-69
2022/08/04 09:09:43;;;;;;;4.40;3.40;;;27.50;99.90;;;;;;5095737;27;20545;-72
2022/08/04 09:12:40;;;;;;;5.90;3.13;;;27.70;99.90;;;;;;5089441;28;20480;-73
2022/08/04 09:15:35;;;;;;;5.00;3.40;;;27.80;99.90;;;;;;5088615;28;20483;-73
2022/08/04 09:18:27;;;;;;;3.23;2.93;;;28.00;99.90;;;;;;5095646;28;20444;-74
2022/08/04 09:21:25;;;;;;;3.80;3.50;;;28.10;99.90;;;;;;5092525;28;20500;-72
2022/08/04 09:24:21;;;;;;;3.70;3.40;;;28.30;99.90;;;;;;5083983;28;20492;-74
2022/08/04 09:27:29;;;;;;;4.47;4.07;;;28.50;99.90;;;;;;5091953;28;20927;-74
2022/08/04 09:30:20;;;;;;;4.03;3.67;;;28.60;99.90;;;;;;5092823;28;20467;-74
2022/08/04 09:33:22;;;;;;;4.27;3.47;;;28.80;99.90;;;;;;5089240;28;20456;-73
2022/08/04 09:36:37;;;;;;;5.10;4.23;;;28.90;99.90;;;;;;5090067;28;21116;-74
2022/08/04 09:39:31;;;;;;;6.80;4.10;;;29.00;99.90;;;;;;5091892;28;20471;-73
2022/08/04 09:42:28;;;;;;;4.47;3.80;;;29.20;99.90;;;;;;5090528;28;20453;-73
2022/08/04 09:45:27;;;;;;;7.27;3.47;;;29.30;99.90;;;;;;5088604;28;20479;-74
2022/08/04 09:48:39;;;;;;;5.53;3.70;;;29.40;99.90;;;;;;5091454;27;20467;-74
2022/08/04 09:51:45;;;;;;;3.53;3.20;;;29.50;99.90;;;;;;5094188;27;20442;-74
2022/08/04 09:54:52;;;;;;;3.93;3.60;;;29.50;99.90;;;;;;5091746;28;20637;-74
2022/08/04 09:57:51;;;;;;;4.13;3.73;;;29.70;99.90;;;;;;5069753;28;21147;-74
2022/08/04 10:00:46;;;;;;;3.83;3.53;;;29.70;99.90;;;;;;5082881;28;20459;-75
2022/08/04 10:03:38;;;;;;;4.40;4.00;;;29.80;99.90;;;;;;5090933;28;20479;-74
2022/08/04 10:07:13;;;;;;;3.87;3.57;;;29.90;99.90;;;;;;5089868;28;20463;-74
2022/08/04 10:10:15;;;;;;;4.30;4.00;;;30.00;99.90;;;;;;5088187;27;20547;-74
2022/08/04 10:13:21;;;;;;;4.10;3.80;;;30.10;99.90;;;;;;5095190;27;20529;-71
2022/08/04 10:16:24;;;;;;;6.10;4.33;;;30.20;99.90;;;;;;5090438;28;20716;-71
2022/08/04 10:19:26;;;;;;;5.30;4.40;;;30.30;99.90;;;;;;5085087;28;20452;-71
2022/08/04 10:22:22;;;;;;;4.33;4.03;;;30.50;99.90;;;;;;5087153;28;20532;-74
2022/08/04 10:25:41;;;;;;;5.07;4.20;;;30.50;99.90;;;;;;5084484;28;20455;-73
2022/08/04 10:29:03;;;;;;;3.97;3.67;;;30.70;99.90;;;;;;5079520;28;20456;-72
2022/08/04 10:32:04;;;;;;;4.83;3.97;;;30.80;99.90;;;;;;5088081;28;20443;-74
2022/08/04 10:35:02;;;;;;;4.13;3.83;;;30.90;99.90;;;;;;5081887;28;20506;-71
2022/08/04 10:38:04;;;;;;;4.90;4.60;;;30.90;99.90;;;;;;5086092;28;20967;-72
2022/08/04 10:41:00;;;;;;;4.63;4.20;;;31.00;99.90;;;;;;5094075;28;20482;-71
2022/08/04 10:43:56;;;;;;;5.10;4.60;;;31.00;99.90;;;;;;5091447;28;20474;-72
2022/08/04 10:46:49;;;;;;;5.60;4.00;;;31.00;99.90;;;;;;5093822;28;20464;-72
2022/08/04 10:49:44;;;;;;;4.40;4.00;;;31.00;99.90;;;;;;5092372;28;20493;-74
2022/08/04 10:52:37;;;;;;;4.07;3.73;;;31.10;99.90;;;;;;5085938;28;20563;-72
2022/08/04 10:55:35;;;;;;;4.73;4.33;;;31.20;99.90;;;;;;5084154;28;20482;-72
2022/08/04 10:58:51;;;;;;;4.60;4.20;;;31.20;99.90;;;;;;5084248;28;20456;-71
2022/08/04 11:01:46;;;;;;;5.27;4.13;;;31.30;99.90;;;;;;5079735;27;20455;-71
2022/08/04 11:05:01;;;;;;;5.07;4.20;;;31.40;99.90;;;;;;5084370;28;20574;-72
2022/08/04 11:07:52;;;;;;;4.50;4.20;;;31.50;99.90;;;;;;5086219;28;20444;-72
2022/08/04 11:10:46;;;;;;;4.80;4.33;;;31.60;99.90;;;;;;5086451;28;20467;-72
2022/08/04 11:13:40;;;;;;;3.97;3.77;;;31.70;99.90;;;;;;5082152;27;20491;-71
2022/08/04 11:16:41;;;;;;;3.90;3.70;;;31.80;99.90;;;;;;5089891;28;20471;-72
2022/08/04 11:19:34;;;;;;;4.17;3.83;;;31.90;99.90;;;;;;5084363;28;20506;-73
2022/08/04 11:22:41;;;;;;;4.00;3.60;;;32.10;99.90;;;;;;5081655;28;20459;-72
2022/08/04 11:25:35;;;;;;;4.67;4.30;;;32.20;99.90;;;;;;5096005;28;20479;-72
2022/08/04 11:28:38;;;;;;;4.00;3.70;;;32.30;99.90;;;;;;5088641;28;20551;-73
2022/08/04 11:31:31;;;;;;;4.33;3.97;;;32.40;99.90;;;;;;5089268;28;20499;-73
2022/08/04 11:34:21;;;;;;;4.47;4.17;;;32.40;99.90;;;;;;5102138;27;20567;-73
2022/08/04 11:37:13;;;;;;;5.57;3.87;;;32.50;99.90;;;;;;5095123;28;20452;-72
2022/08/04 11:40:11;;;;;;;6.40;4.47;;;32.60;99.90;;;;;;5087434;27;20815;-72
2022/08/04 11:43:04;;;;;;;5.00;3.70;;;32.70;99.90;;;;;;5094004;28;20539;-73
2022/08/04 11:46:00;;;;;;;4.10;3.80;;;32.70;99.90;;;;;;5095718;28;20444;-72
2022/08/04 11:48:56;;;;;;;4.40;3.80;;;32.80;99.90;;;;;;5099910;28;20540;-72
2022/08/04 11:51:45;;;;;;;4.30;3.90;;;32.90;99.90;;;;;;5085274;28;20459;-72
2022/08/04 11:54:35;;;;;;;5.70;4.13;;;33.00;99.90;;;;;;5084431;28;20472;-72
2022/08/04 11:57:24;;;;;;;4.60;4.20;;;33.00;99.90;;;;;;5094028;28;20443;-72
2022/08/04 12:00:34;;;;;;;3.83;3.53;;;33.00;99.90;;;;;;5104284;28;20463;-72
2022/08/04 12:03:36;;;;;;;4.80;4.50;;;33.10;99.90;;;;;;5092078;28;20479;-72
2022/08/04 12:06:30;;;;;;;4.43;4.13;;;33.20;99.90;;;;;;5092039;28;20441;-72
2022/08/04 12:09:28;;;;;;;5.03;3.77;;;33.20;99.90;;;;;;5086286;28;20443;-72
2022/08/04 12:12:26;;;;;;;3.27;3.07;;;33.20;99.80;;;;;;5081985;28;20507;-73
2022/08/04 12:15:22;;;;;;;3.40;3.20;;;33.20;98.90;;;;;;5085632;28;20487;-72
2022/08/04 12:18:18;;;;;;;2.87;2.77;;;33.20;96.80;;;;;;5078038;28;21032;-72
2022/08/04 12:21:14;;;;;;;3.30;2.93;;;33.30;95.60;;;;;;5083180;28;21208;-72
2022/08/04 12:24:08;;;;;;;3.47;3.23;;;33.40;95.10;;;;;;5090037;28;20480;-72
2022/08/04 12:27:05;;;;;;;3.50;3.20;;;33.50;93.90;;;;;;5095420;28;20448;-72
2022/08/04 12:29:55;;;;;;;3.30;3.10;;;33.50;93.50;;;;;;5098423;28;20553;-72
2022/08/04 12:33:10;;;;;;;3.97;3.53;;;33.60;94.70;;;;;;5091032;28;20573;-72
2022/08/04 12:36:18;;;;;;;3.47;3.27;;;33.70;94.30;;;;;;5088400;28;20486;-73
2022/08/04 12:39:15;;;;;;;3.30;3.10;;;33.90;93.30;;;;;;5085368;28;20846;-71
2022/08/04 12:42:13;;;;;;;3.70;3.50;;;34.00;93.60;;;;;;5080460;28;21029;-72
2022/08/04 12:45:10;;;;;;;3.83;3.53;;;34.00;94.80;;;;;;5075211;28;20502;-71
2022/08/04 12:48:00;;;;;;;3.73;3.53;;;34.10;92.90;;;;;;5090598;28;20465;-72
2022/08/04 12:50:51;;;;;;;3.33;3.10;;;34.10;92.00;;;;;;5094179;28;20946;-71
2022/08/04 12:53:43;;;;;;;3.73;3.50;;;34.30;92.10;;;;;;5094430;28;20504;-70
2022/08/04 12:56:39;;;;;;;4.87;3.37;;;34.50;91.00;;;;;;5096871;28;20475;-71
2022/08/04 12:59:28;;;;;;;4.07;3.70;;;34.70;91.80;;;;;;5093197;28;20479;-70
2022/08/04 13:02:22;;;;;;;4.00;3.70;;;34.80;91.50;;;;;;5089278;28;20497;-72
2022/08/04 13:05:15;;;;;;;3.57;3.37;;;35.00;91.00;;;;;;5098897;28;20739;-72
2022/08/04 13:08:06;;;;;;;3.60;3.40;;;35.20;90.30;;;;;;5099363;27;20456;-72
2022/08/04 13:11:01;;;;;;;3.83;3.53;;;35.20;88.20;;;;;;5098689;27;20456;-73
2022/08/04 13:13:54;;;;;;;3.40;3.20;;;35.20;88.30;;;;;;5099207;28;20498;-73
2022/08/04 13:17:03;;;;;;;3.33;3.13;;;35.10;87.50;;;;;;5095573;28;20490;-73
2022/08/04 13:19:53;;;;;;;3.30;3.00;;;35.00;88.40;;;;;;5091369;28;20455;-71
2022/08/04 13:22:43;;;;;;;3.70;3.40;;;35.00;87.20;;;;;;5089970;27;20564;-71
2022/08/04 13:25:38;;;;;;;3.93;3.63;;;34.90;88.70;;;;;;5092076;27;21101;-72
2022/08/04 13:28:50;;;;;;;3.93;3.30;;;34.80;89.20;;;;;;5095401;27;20451;-72
2022/08/04 13:31:44;;;;;;;3.50;3.20;;;34.80;92.00;;;;;;5099710;27;20968;-72
2022/08/04 13:34:42;;;;;;;3.80;3.60;;;34.80;91.50;;;;;;5090325;27;22457;-72
2022/08/04 13:37:41;;;;;;;5.47;3.73;;;34.80;91.50;;;;;;5099042;27;20502;-74
2022/08/04 13:40:29;;;;;;;3.90;3.60;;;35.00;90.20;;;;;;5093185;27;20459;-73
2022/08/04 13:43:25;;;;;;;3.23;3.03;;;35.00;92.70;;;;;;5093736;28;21015;-72
2022/08/04 13:46:39;;;;;;;3.70;3.50;;;35.10;91.90;;;;;;5092078;27;20803;-72
2022/08/04 13:49:31;;;;;;;3.60;3.30;;;35.20;90.00;;;;;;5094431;28;20472;-72
2022/08/04 13:52:40;;;;;;;3.50;3.13;;;35.40;88.20;;;;;;5081960;27;20455;-72
2022/08/04 13:55:30;;;;;;;3.60;3.30;;;35.60;90.80;;;;;;5083887;28;20583;-72
2022/08/04 13:58:22;;;;;;;6.73;3.10;;;35.70;88.60;;;;;;5094557;28;20455;-72
2022/08/04 14:01:14;;;;;;;4.03;3.00;;;35.80;87.30;;;;;;5079185;27;20597;-72
2022/08/04 14:04:12;;;;;;;2.83;2.73;;;35.80;87.80;;;;;;5099662;22;22661;-78
2022/08/04 14:07:05;;;;;;;3.00;2.80;;;35.90;88.00;;;;;;5078998;28;20448;-85
2022/08/04 14:10:10;;;;;;;3.77;3.47;;;35.90;87.90;;;;;;5072390;28;20452;-80
2022/08/04 14:12:58;;;;;;;3.40;3.20;;;36.00;90.40;;;;;;5082441;28;20549;-77
2022/08/04 14:15:50;;;;;;;3.53;3.23;;;36.10;87.50;;;;;;5054547;28;20452;-74
2022/08/04 14:19:01;;;;;;;3.73;3.53;;;36.30;89.10;;;;;;5050062;28;20523;-75
2022/08/04 14:21:51;;;;;;;3.57;3.07;;;36.60;87.90;;;;;;5049447;28;20445;-78
2022/08/04 14:24:41;;;;;;;4.73;3.53;;;37.20;86.50;;;;;;5051477;28;20569;-76
2022/08/04 14:27:40;;;;;;;3.05;2.85;;;37.80;85.20;;;;;;5055051;28;20901;-80
2022/08/04 14:30:30;;;;;;;3.35;3.05;;;38.10;84.50;;;;;;5042119;28;20372;-80
2022/08/04 14:33:24;;;;;;;2.67;2.58;;;38.20;87.50;;;;;;5061897;28;20194;-79
2022/08/04 14:36:40;;;;;;;3.58;3.00;;;;;;;;;;5050435;28;20223;-80
2022/08/04 14:39:53;;;;;;;2.75;2.65;;;38.40;82.70;;;;;;5054155;28;20608;-74
2022/08/04 14:43:02;;;;;;;3.50;3.20;;;38.50;80.10;;;;;;5056161;28;20293;-74
2022/08/04 14:46:04;;;;;;;4.43;3.40;;;38.00;83.00;;;;;;5057521;28;20199;-73
2022/08/04 14:49:04;;;;;;;3.65;3.40;;;37.80;87.20;;;;;;5056499;28;20203;-74
2022/08/04 14:52:00;;;;;;;4.50;4.20;;;37.10;90.20;;;;;;5051806;28;20220;-76
2022/08/04 14:54:50;;;;;;;4.03;3.63;;;36.60;92.10;;;;;;5056136;28;20471;-76
2022/08/04 14:57:41;;;;;;;4.10;3.80;;;36.40;93.90;;;;;;5037726;28;20501;-75
2022/08/04 15:00:52;;;;;;;5.47;4.20;;;36.00;95.20;;;;;;5055186;28;20453;-75
2022/08/04 15:03:43;;;;;;;6.47;4.10;;;35.20;98.10;;;;;;5047680;28;20543;-76
2022/08/04 15:06:40;;;;;;;7.23;4.57;;;35.10;99.90;;;;;;5046132;28;20580;-75
2022/08/04 15:09:34;;;;;;;7.80;5.10;;;34.60;99.90;;;;;;5051322;28;20465;-75
2022/08/04 15:12:24;;;;;;;12.07;5.10;;;34.20;99.90;;;;;;5047826;28;20472;-75
2022/08/04 15:15:13;;;;;;;5.20;4.30;;;33.80;99.90;;;;;;5040332;28;20508;-75
2022/08/04 15:18:21;;;;;;;5.83;4.90;;;33.50;99.90;;;;;;5042606;28;20631;-78
2022/08/04 15:21:12;;;;;;;6.50;4.80;;;33.30;99.90;;;;;;5049299;28;20455;-75
2022/08/04 15:24:00;;;;;;;5.23;4.73;;;32.90;99.90;;;;;;5047036;28;20480;-78
2022/08/04 15:26:51;;;;;;;6.50;4.87;;;32.50;99.90;;;;;;5047744;28;20511;-78
2022/08/04 15:29:46;;;;;;;11.40;5.10;;;32.30;99.90;;;;;;5049156;28;20462;-77
2022/08/04 15:32:51;;;;;;;6.80;4.40;;;31.90;99.90;;;;;;5058516;28;20473;-76
2022/08/04 15:35:45;;;;;;;8.03;4.57;;;31.80;99.90;;;;;;5049029;28;20852;-73